Time;durP1;ratioP1;P1;durP2;ratioP2;P2;SDS_P1;SDS_P2;PMS_P1;PMS_P2;Temp;Humidity;BMP_temperature;BMP_pressure;BME280_temperature;BME280_humidity;BME280_pressure;Samples;Min_cycle;Max_cycle;Signal;HPM_P1;HPM_P2
2023/08/19 00:01:32;;;;;;;6.53;5.93;;;27.70;62.40;29.20;101102.00;;;;5048204;28;20212;-79
2023/08/19 00:04:00;;;;;;;6.90;6.20;;;27.70;62.40;29.20;101100.00;;;;5046776;28;20211;-80
2023/08/19 00:06:36;;;;;;;6.03;5.43;;;27.70;62.50;29.10;101104.00;;;;5046513;28;20581;-79
2023/08/19 00:09:05;;;;;;;6.80;6.15;;;27.60;62.50;29.20;101100.00;;;;5046974;28;20603;-79
2023/08/19 00:11:32;;;;;;;6.60;6.00;;;27.60;62.40;29.20;101099.00;;;;5047950;28;20199;-80
2023/08/19 00:13:59;;;;;;;6.18;5.63;;;27.60;62.30;29.20;101088.00;;;;5046931;28;20302;-79
2023/08/19 00:16:27;;;;;;;6.72;6.13;;;27.70;62.40;29.10;101091.00;;;;5047910;28;20204;-79
2023/08/19 00:18:54;;;;;;;6.70;6.05;;;27.60;62.30;29.10;101081.00;;;;5046987;28;20199;-79
2023/08/19 00:21:21;;;;;;;6.10;5.35;;;27.60;62.40;29.10;101085.00;;;;5047307;28;20246;-80
2023/08/19 00:23:49;;;;;;;6.85;6.15;;;27.60;62.40;29.10;101081.00;;;;5046430;28;20218;-79
2023/08/19 00:26:17;;;;;;;6.30;5.70;;;27.60;62.50;29.10;101080.00;;;;5047573;28;20243;-79
2023/08/19 00:28:44;;;;;;;5.68;5.18;;;27.50;62.40;29.10;101079.00;;;;5051075;28;20671;-80
2023/08/19 00:31:11;;;;;;;7.93;5.95;;;27.50;62.50;29.10;101078.00;;;;5050636;28;20203;-79
2023/08/19 00:33:38;;;;;;;7.90;5.68;;;27.50;62.50;29.10;101072.00;;;;5051027;28;20200;-79
2023/08/19 00:36:06;;;;;;;5.72;5.10;;;27.50;62.50;29.00;101076.00;;;;5050948;28;20215;-79
2023/08/19 00:38:32;;;;;;;5.57;5.07;;;27.50;62.50;29.00;101065.00;;;;5050281;28;20203;-79
2023/08/19 00:41:03;;;;;;;5.45;4.95;;;27.50;62.50;29.00;101064.00;;;;5033782;28;20197;-79
2023/08/19 00:43:31;;;;;;;6.85;5.90;;;27.50;62.60;29.00;101067.00;;;;5030246;28;20230;-79
2023/08/19 00:45:58;;;;;;;5.90;5.40;;;27.50;62.60;29.00;101073.00;;;;5030633;28;20204;-79
2023/08/19 00:48:25;;;;;;;6.47;5.88;;;27.50;62.60;29.00;101066.00;;;;5030517;28;20208;-79
2023/08/19 00:50:54;;;;;;;10.35;5.50;;;27.40;62.60;29.00;101064.00;;;;5030901;28;20726;-80
2023/08/19 00:53:21;;;;;;;6.20;5.63;;;27.50;62.70;28.90;101062.00;;;;5049914;28;20200;-79
2023/08/19 00:55:49;;;;;;;7.97;5.43;;;27.50;62.80;28.90;101057.00;;;;5050465;28;20211;-79
2023/08/19 00:58:19;;;;;;;6.20;5.60;;;27.40;62.80;28.90;101058.00;;;;5049731;28;20223;-79
2023/08/19 01:00:48;;;;;;;11.63;6.78;;;27.40;62.80;28.90;101060.00;;;;5050478;28;20207;-80
2023/08/19 01:03:15;;;;;;;6.10;5.55;;;27.40;62.80;28.90;101065.00;;;;5050149;28;20710;-80
2023/08/19 01:06:00;;;;;;;8.65;5.82;;;27.40;62.80;28.80;101061.00;;;;5050235;28;20208;-80
2023/08/19 01:08:37;;;;;;;6.10;5.50;;;27.40;63.00;28.80;101069.00;;;;5050324;28;20195;-80
2023/08/19 01:11:21;;;;;;;6.45;5.65;;;27.30;62.90;28.70;101064.00;;;;5050143;28;20697;-80
2023/08/19 01:14:01;;;;;;;7.55;6.85;;;27.30;63.20;28.70;101065.00;;;;5049430;28;20257;-80
2023/08/19 01:16:31;;;;;;;7.78;7.07;;;27.30;63.10;28.80;101059.00;;;;5050323;28;20192;-79
2023/08/19 01:18:59;;;;;;;7.35;6.63;;;27.30;63.00;28.70;101060.00;;;;5050203;28;20212;-80
2023/08/19 01:21:27;;;;;;;7.75;6.95;;;27.20;63.10;28.70;101063.00;;;;5050341;28;20204;-80
2023/08/19 01:23:59;;;;;;;7.78;7.07;;;27.20;63.10;28.70;101055.00;;;;5050359;28;20246;-80
2023/08/19 01:26:28;;;;;;;6.78;5.90;;;27.20;63.20;28.70;101059.00;;;;5049448;28;20207;-81
2023/08/19 01:28:55;;;;;;;8.25;7.43;;;27.20;63.40;28.70;101046.00;;;;5049691;28;20199;-79
2023/08/19 01:31:22;;;;;;;9.05;8.10;;;27.20;63.40;28.70;101046.00;;;;5049213;28;20597;-79
2023/08/19 01:33:49;;;;;;;8.30;7.50;;;27.20;63.50;28.70;101046.00;;;;5050401;28;20192;-79
2023/08/19 01:36:29;;;;;;;7.47;6.70;;;27.20;63.50;28.60;101037.00;;;;5049367;28;20541;-79
2023/08/19 01:39:02;;;;;;;7.25;6.55;;;27.20;63.70;28.60;101036.00;;;;5048848;28;20586;-79
2023/08/19 01:41:33;;;;;;;8.67;7.87;;;27.20;63.60;28.60;101031.00;;;;5049939;28;20200;-79
2023/08/19 01:44:02;;;;;;;9.27;8.40;;;27.20;63.70;28.70;101029.00;;;;5050161;28;20205;-79
2023/08/19 01:46:29;;;;;;;9.07;8.18;;;27.20;63.60;28.70;101033.00;;;;5049320;28;20641;-79
2023/08/19 01:48:56;;;;;;;11.75;9.18;;;27.20;63.70;28.70;101018.00;;;;5048411;28;20203;-79
2023/08/19 01:51:23;;;;;;;9.18;8.25;;;27.20;63.70;28.70;101028.00;;;;5049346;28;20231;-79
2023/08/19 01:53:50;;;;;;;10.70;9.20;;;27.20;63.70;28.70;101026.00;;;;5049340;28;20211;-79
2023/08/19 01:56:18;;;;;;;8.73;7.80;;;27.20;63.80;28.70;101020.00;;;;5049476;28;20210;-79
2023/08/19 01:58:46;;;;;;;10.30;9.23;;;27.20;63.90;28.70;101020.00;;;;5049192;28;20215;-79
2023/08/19 02:01:14;;;;;;;10.43;8.52;;;27.20;63.90;28.70;101019.00;;;;5049542;28;20668;-79
2023/08/19 02:03:41;;;;;;;9.48;8.23;;;27.20;63.90;28.70;101025.00;;;;5048725;28;20703;-79
2023/08/19 02:06:08;;;;;;;10.00;8.73;;;27.20;63.90;28.70;101026.00;;;;5047884;28;20206;-79
2023/08/19 02:08:35;;;;;;;10.02;9.05;;;27.20;63.90;28.70;101021.00;;;;5049399;28;20566;-78
2023/08/19 02:11:02;;;;;;;9.68;8.68;;;27.20;63.90;28.70;101022.00;;;;5048702;28;20228;-79
2023/08/19 02:13:29;;;;;;;9.90;8.43;;;27.20;63.90;28.70;101016.00;;;;5048628;28;20200;-79
2023/08/19 02:15:57;;;;;;;10.50;8.68;;;27.20;64.00;28.70;101015.00;;;;5048977;28;20211;-79
2023/08/19 02:18:25;;;;;;;9.50;8.55;;;27.20;64.00;28.70;101014.00;;;;5049181;28;20195;-80
2023/08/19 02:20:52;;;;;;;9.70;8.70;;;27.20;64.00;28.70;101017.00;;;;5048407;28;20208;-79
2023/08/19 02:23:19;;;;;;;11.88;9.18;;;27.20;64.00;28.70;101013.00;;;;5029356;28;20231;-79
2023/08/19 02:25:46;;;;;;;11.85;8.80;;;27.30;64.10;28.70;101009.00;;;;5028913;28;20200;-79
2023/08/19 02:28:12;;;;;;;9.27;8.38;;;27.20;64.00;28.70;101006.00;;;;5028024;28;20215;-79
2023/08/19 02:30:40;;;;;;;9.45;8.55;;;27.30;64.10;28.70;101004.00;;;;5035076;28;20199;-79
2023/08/19 02:33:09;;;;;;;8.52;7.68;;;27.20;64.00;28.70;101008.00;;;;5048122;28;20195;-79
2023/08/19 02:35:36;;;;;;;9.40;8.43;;;27.30;64.10;28.80;101005.00;;;;5049071;28;20204;-79
2023/08/19 02:38:03;;;;;;;10.95;9.65;;;27.30;64.00;28.80;101002.00;;;;5047376;28;20199;-79
2023/08/19 02:40:31;;;;;;;10.45;9.23;;;27.30;64.10;28.70;101000.00;;;;5049123;28;20273;-79
2023/08/19 02:42:59;;;;;;;9.88;8.55;;;27.30;64.10;28.80;100995.00;;;;5048311;28;20227;-79
2023/08/19 02:45:27;;;;;;;10.65;9.57;;;27.30;64.00;28.80;101002.00;;;;5047961;28;20191;-79
2023/08/19 02:47:54;;;;;;;10.23;9.15;;;27.30;64.10;28.80;100995.00;;;;5048512;28;20621;-79
2023/08/19 02:50:22;;;;;;;8.95;8.05;;;27.30;64.00;28.70;100992.00;;;;5047446;28;20235;-79
2023/08/19 02:52:49;;;;;;;9.38;8.48;;;27.30;64.10;28.80;100993.00;;;;5047932;28;20578;-80
2023/08/19 02:55:16;;;;;;;9.98;8.82;;;27.30;64.10;28.80;100990.00;;;;5047562;28;20208;-79
2023/08/19 02:57:43;;;;;;;9.55;8.60;;;27.30;64.10;28.80;100993.00;;;;5048234;28;20208;-79
2023/08/19 03:00:11;;;;;;;10.73;9.23;;;27.30;64.10;28.80;100991.00;;;;5048605;28;20226;-79
2023/08/19 03:02:38;;;;;;;10.68;9.18;;;27.30;64.10;28.80;100993.00;;;;5048763;28;20227;-79
2023/08/19 03:05:06;;;;;;;9.90;8.90;;;27.30;64.00;28.80;100983.00;;;;5048477;28;20205;-80
2023/08/19 03:07:34;;;;;;;10.20;8.48;;;27.30;64.00;28.80;100979.00;;;;5048675;28;20641;-80
2023/08/19 03:10:02;;;;;;;9.30;8.40;;;27.30;64.10;28.80;100977.00;;;;5048651;28;20231;-79
2023/08/19 03:12:29;;;;;;;8.85;7.95;;;27.30;64.10;28.80;100974.00;;;;5047908;28;20298;-80
2023/08/19 03:14:56;;;;;;;8.77;7.90;;;27.30;64.10;28.80;100980.00;;;;5048584;28;20687;-80
2023/08/19 03:17:23;;;;;;;9.60;8.60;;;27.30;64.10;28.80;100973.00;;;;5047849;28;20191;-80
2023/08/19 03:19:50;;;;;;;9.38;8.35;;;27.30;64.80;28.80;100970.00;;;;5048756;28;20848;-80
2023/08/19 03:22:17;;;;;;;9.02;8.02;;;27.30;64.00;28.80;100964.00;;;;5048195;28;20560;-80
2023/08/19 03:24:45;;;;;;;10.30;8.25;;;27.30;64.00;28.80;100972.00;;;;5048051;28;20207;-80
2023/08/19 03:27:12;;;;;;;9.23;7.78;;;27.30;64.10;28.80;100979.00;;;;5047578;28;20218;-80
2023/08/19 03:29:39;;;;;;;9.55;8.63;;;27.30;64.10;28.80;100971.00;;;;5042746;28;20204;-80
2023/08/19 03:32:06;;;;;;;9.65;8.65;;;27.30;64.10;28.80;100980.00;;;;5046442;28;20550;-81
2023/08/19 03:34:33;;;;;;;9.45;8.52;;;27.30;64.10;28.80;100985.00;;;;5048138;28;20215;-81
2023/08/19 03:37:00;;;;;;;10.65;9.55;;;27.30;64.00;28.80;100978.00;;;;5047752;28;20207;-80
2023/08/19 03:39:27;;;;;;;10.18;8.52;;;27.30;64.10;28.80;100971.00;;;;5048863;28;20207;-81
2023/08/19 03:41:55;;;;;;;9.57;8.27;;;27.30;64.10;28.80;100970.00;;;;5048222;28;20211;-81
2023/08/19 03:44:22;;;;;;;8.85;6.93;;;27.30;64.10;28.80;100971.00;;;;5048638;28;20223;-80
2023/08/19 03:46:49;;;;;;;8.20;7.43;;;27.30;64.00;28.80;100970.00;;;;5040820;28;20208;-81
2023/08/19 03:49:16;;;;;;;10.73;8.27;;;27.30;64.00;28.80;100973.00;;;;5028286;28;20678;-81
2023/08/19 03:51:43;;;;;;;10.48;9.05;;;27.30;64.00;28.80;100976.00;;;;5027663;28;20231;-81
2023/08/19 03:54:10;;;;;;;11.40;8.45;;;27.30;64.00;28.80;100975.00;;;;5039680;28;20196;-80
2023/08/19 03:56:37;;;;;;;8.43;7.60;;;27.30;64.00;28.80;100985.00;;;;5048486;28;20559;-80
2023/08/19 03:59:05;;;;;;;9.07;7.72;;;27.30;64.10;28.80;100985.00;;;;5048255;28;20538;-80
2023/08/19 04:01:32;;;;;;;9.60;8.60;;;27.30;64.10;28.80;100984.00;;;;5048609;28;20219;-81
2023/08/19 04:03:59;;;;;;;9.75;8.65;;;27.30;64.00;28.80;100978.00;;;;5043536;28;20596;-80
2023/08/19 04:06:26;;;;;;;11.93;8.77;;;27.30;64.10;28.80;100976.00;;;;5031820;28;20215;-81
2023/08/19 04:08:53;;;;;;;9.00;8.10;;;27.30;64.10;28.80;100971.00;;;;5032116;28;20214;-81
2023/08/19 04:11:20;;;;;;;11.10;8.65;;;27.30;64.10;28.80;100964.00;;;;5032320;28;20231;-81
2023/08/19 04:13:47;;;;;;;9.07;8.13;;;27.30;64.10;28.70;100961.00;;;;5031793;28;20582;-80
2023/08/19 04:16:15;;;;;;;9.38;8.40;;;27.20;64.00;28.70;100976.00;;;;5031906;28;20200;-80
2023/08/19 04:18:42;;;;;;;8.45;7.57;;;27.30;64.20;28.80;100985.00;;;;5031778;28;20567;-81
2023/08/19 04:21:10;;;;;;;8.65;7.78;;;27.20;64.10;28.70;100978.00;;;;5031677;28;20207;-80
2023/08/19 04:23:37;;;;;;;9.70;8.23;;;27.20;64.10;28.70;100974.00;;;;5031684;28;20270;-80
2023/08/19 04:26:05;;;;;;;11.23;8.40;;;27.20;64.10;28.70;100982.00;;;;5030906;28;20625;-80
2023/08/19 04:28:32;;;;;;;9.95;8.50;;;27.20;64.10;28.70;100981.00;;;;5031414;28;20216;-80
2023/08/19 04:31:03;;;;;;;8.32;7.53;;;27.20;64.10;28.70;100985.00;;;;5047597;28;20203;-80
2023/08/19 04:33:31;;;;;;;9.13;8.07;;;27.20;64.20;28.70;100979.00;;;;5050864;28;20212;-80
2023/08/19 04:35:58;;;;;;;8.40;7.45;;;27.20;64.20;28.70;100995.00;;;;5050924;28;20286;-80
2023/08/19 04:38:25;;;;;;;9.50;7.63;;;27.20;64.20;28.70;100995.00;;;;5038781;28;20666;-80
2023/08/19 04:40:52;;;;;;;8.38;7.45;;;27.20;64.20;28.70;101003.00;;;;5031448;28;20200;-81
2023/08/19 04:43:20;;;;;;;9.60;7.40;;;27.20;64.30;28.70;101006.00;;;;5030860;28;20216;-80
2023/08/19 04:45:48;;;;;;;8.70;7.82;;;27.20;64.30;28.70;101014.00;;;;5031213;28;20587;-80
2023/08/19 04:48:15;;;;;;;9.48;8.45;;;27.20;64.30;28.70;101008.00;;;;5030844;28;20200;-80
2023/08/19 04:50:43;;;;;;;8.32;7.32;;;27.20;65.00;28.70;101011.00;;;;5030656;28;20224;-81
2023/08/19 04:53:10;;;;;;;9.32;7.35;;;27.20;64.40;28.70;101007.00;;;;5033047;28;20199;-80
2023/08/19 04:55:37;;;;;;;7.03;6.43;;;27.20;64.50;28.70;101011.00;;;;5035978;28;20668;-80
2023/08/19 04:58:04;;;;;;;7.82;7.10;;;27.20;64.50;28.70;101014.00;;;;5030790;28;20211;-80
2023/08/19 05:00:31;;;;;;;10.13;8.65;;;27.20;64.50;28.70;101009.00;;;;5030468;28;20580;-81
2023/08/19 05:02:58;;;;;;;9.98;7.63;;;27.20;64.50;28.70;101009.00;;;;5030591;28;20255;-79
2023/08/19 05:05:25;;;;;;;8.95;7.43;;;27.10;64.50;28.70;101009.00;;;;5030462;28;20207;-79
2023/08/19 05:07:54;;;;;;;8.15;7.35;;;27.10;64.50;28.70;101011.00;;;;5030432;28;20204;-79
2023/08/19 05:10:21;;;;;;;12.40;8.55;;;27.10;64.50;28.70;101003.00;;;;5030395;28;20234;-80
2023/08/19 05:12:48;;;;;;;11.98;8.60;;;27.10;64.50;28.70;100993.00;;;;5030281;28;20212;-79
2023/08/19 05:15:15;;;;;;;7.90;7.10;;;27.10;64.50;28.70;100992.00;;;;5029921;28;20204;-79
2023/08/19 05:17:42;;;;;;;10.48;8.65;;;27.10;64.50;28.70;100989.00;;;;5030339;28;20197;-79
2023/08/19 05:20:10;;;;;;;10.05;7.35;;;27.20;64.60;28.70;100999.00;;;;5030340;28;20556;-80
2023/08/19 05:22:37;;;;;;;8.95;8.05;;;27.10;64.60;28.70;101005.00;;;;5029573;28;20216;-80
2023/08/19 05:25:08;;;;;;;12.65;7.65;;;27.20;64.70;28.60;101007.00;;;;5030342;28;20741;-79
2023/08/19 05:27:35;;;;;;;9.95;8.52;;;27.10;64.70;28.70;101012.00;;;;5029619;28;20222;-79
2023/08/19 05:30:04;;;;;;;11.20;8.23;;;27.10;64.60;28.70;101016.00;;;;5046874;28;20214;-79
2023/08/19 05:32:31;;;;;;;9.98;7.60;;;27.10;64.60;28.70;101004.00;;;;5050591;28;20222;-79
2023/08/19 05:34:58;;;;;;;8.88;7.97;;;27.10;64.70;28.70;101008.00;;;;5050149;28;20200;-80
2023/08/19 05:37:24;;;;;;;10.88;7.75;;;27.10;64.70;28.70;101015.00;;;;5049349;28;20671;-79
2023/08/19 05:39:52;;;;;;;11.35;7.63;;;27.10;64.70;28.70;101011.00;;;;5049726;28;20727;-79
2023/08/19 05:42:20;;;;;;;10.52;7.93;;;27.10;64.70;28.70;101011.00;;;;5050288;28;20195;-80
2023/08/19 05:44:47;;;;;;;9.23;8.30;;;27.10;64.80;28.70;101011.00;;;;5049025;28;20228;-80
2023/08/19 05:47:15;;;;;;;9.40;7.72;;;27.10;64.80;28.70;101004.00;;;;5030495;28;20440;-80
2023/08/19 05:49:42;;;;;;;9.85;7.80;;;27.10;64.80;28.70;100996.00;;;;5029836;28;20204;-80
2023/08/19 05:52:09;;;;;;;8.90;7.82;;;27.20;64.90;28.70;101007.00;;;;5029604;28;20204;-80
2023/08/19 05:54:36;;;;;;;9.45;7.60;;;27.20;65.00;28.70;101008.00;;;;5043746;28;20532;-80
2023/08/19 05:57:03;;;;;;;8.88;7.70;;;27.20;65.00;28.70;101001.00;;;;5049393;28;20218;-80
2023/08/19 05:59:31;;;;;;;9.27;8.18;;;27.20;65.00;28.70;101000.00;;;;5049369;28;20211;-80
2023/08/19 06:01:58;;;;;;;8.52;7.55;;;27.20;65.00;28.70;101000.00;;;;5049012;28;20214;-80
2023/08/19 06:04:26;;;;;;;8.65;7.72;;;27.20;65.00;28.70;101002.00;;;;5049406;28;20226;-80
2023/08/19 06:06:53;;;;;;;8.90;7.68;;;27.20;65.00;28.80;101005.00;;;;5049486;28;20572;-80
2023/08/19 06:09:21;;;;;;;11.02;7.82;;;27.20;65.00;28.80;100999.00;;;;5048843;28;20214;-80
2023/08/19 06:11:50;;;;;;;7.75;7.05;;;27.30;65.10;28.80;101003.00;;;;5048775;28;20219;-80
2023/08/19 06:14:17;;;;;;;9.60;8.05;;;27.30;65.10;28.80;101001.00;;;;5049043;28;20621;-80
2023/08/19 06:16:46;;;;;;;9.20;8.07;;;27.30;65.10;28.80;101001.00;;;;5048665;28;20207;-80
2023/08/19 06:19:14;;;;;;;9.27;8.10;;;27.30;65.10;28.90;101009.00;;;;5048352;28;20488;-80
2023/08/19 06:21:41;;;;;;;7.22;6.53;;;27.40;65.20;28.90;101018.00;;;;5048461;28;20207;-80
2023/08/19 06:24:09;;;;;;;7.72;6.93;;;27.40;65.10;28.90;101026.00;;;;5048905;28;20227;-80
2023/08/19 06:26:36;;;;;;;9.02;8.13;;;27.40;65.10;29.00;101025.00;;;;5048892;28;20572;-80
2023/08/19 06:29:03;;;;;;;8.50;7.68;;;27.50;65.10;29.00;101025.00;;;;5048857;28;20215;-80
2023/08/19 06:31:31;;;;;;;8.38;7.20;;;27.50;65.00;29.00;101029.00;;;;5048602;28;20199;-80
2023/08/19 06:34:00;;;;;;;8.93;8.02;;;27.50;65.00;29.00;101034.00;;;;5048333;28;20212;-80
2023/08/19 06:36:29;;;;;;;10.25;7.70;;;27.50;64.90;29.00;101036.00;;;;5045285;28;20208;-80
2023/08/19 06:39:07;;;;;;;10.77;7.53;;;27.50;64.90;29.00;101037.00;;;;5039605;28;20267;-80
2023/08/19 06:41:39;;;;;;;9.95;8.00;;;27.60;65.00;29.10;101041.00;;;;5048422;28;20582;-80
2023/08/19 06:44:09;;;;;;;7.90;6.78;;;27.60;64.90;29.10;101048.00;;;;5048029;28;20216;-80
2023/08/19 06:46:37;;;;;;;8.23;7.47;;;27.60;64.90;29.10;101054.00;;;;5048881;28;20211;-81
2023/08/19 06:49:06;;;;;;;9.50;8.27;;;27.60;64.90;29.10;101055.00;;;;5047775;28;20188;-80
2023/08/19 06:51:34;;;;;;;9.18;7.75;;;27.60;64.90;29.20;101056.00;;;;5048232;28;20230;-80
2023/08/19 06:54:02;;;;;;;7.32;6.63;;;27.70;65.00;29.30;101054.00;;;;5047263;28;20612;-80
2023/08/19 06:56:34;;;;;;;9.02;7.90;;;27.70;65.00;29.30;101051.00;;;;5048564;28;20286;-81
2023/08/19 06:59:11;;;;;;;8.60;7.55;;;27.80;65.20;29.30;101054.00;;;;5047673;28;20196;-81
2023/08/19 07:01:41;;;;;;;12.15;7.72;;;27.80;65.10;29.40;101047.00;;;;5048449;28;20203;-80
2023/08/19 07:04:12;;;;;;;9.07;8.05;;;27.90;65.10;29.40;101048.00;;;;5047427;28;20602;-80
2023/08/19 07:06:39;;;;;;;11.38;7.72;;;27.90;65.00;29.50;101049.00;;;;5048154;28;20199;-80
2023/08/19 07:09:11;;;;;;;9.25;8.23;;;27.90;64.90;29.50;101055.00;;;;5047881;28;20211;-80
2023/08/19 07:11:39;;;;;;;9.65;8.02;;;28.00;64.90;29.60;101055.00;;;;5047037;28;20245;-80
2023/08/19 07:14:07;;;;;;;9.88;7.53;;;28.10;65.00;29.70;101061.00;;;;5047724;28;20214;-80
2023/08/19 07:16:34;;;;;;;8.15;7.35;;;28.20;65.10;29.80;101053.00;;;;5047569;28;20563;-80
2023/08/19 07:19:09;;;;;;;10.32;8.35;;;28.20;65.10;29.80;101057.00;;;;5047431;28;20195;-81
2023/08/19 07:21:39;;;;;;;8.38;7.22;;;28.30;65.10;29.90;101050.00;;;;5048359;28;20605;-81
2023/08/19 07:24:08;;;;;;;8.45;7.43;;;28.40;64.90;29.90;101053.00;;;;5048486;28;20230;-80
2023/08/19 07:26:38;;;;;;;9.02;8.13;;;28.40;64.80;30.00;101059.00;;;;5047635;28;20574;-80
2023/08/19 07:29:06;;;;;;;9.10;8.15;;;28.50;64.80;30.10;101072.00;;;;5046561;28;20663;-81
2023/08/19 07:31:34;;;;;;;9.98;7.95;;;28.50;64.70;30.10;101077.00;;;;5048355;28;20200;-80
2023/08/19 07:34:01;;;;;;;10.52;7.63;;;28.60;64.70;30.20;101094.00;;;;5047481;28;20667;-80
2023/08/19 07:36:28;;;;;;;7.05;6.35;;;28.70;64.80;30.30;101081.00;;;;5047171;28;20820;-80
2023/08/19 07:38:56;;;;;;;13.10;7.47;;;28.70;64.90;30.40;101086.00;;;;5047106;28;20208;-81
2023/08/19 07:41:23;;;;;;;9.15;7.07;;;28.80;65.00;30.50;101091.00;;;;5047734;28;20585;-80
2023/08/19 07:43:50;;;;;;;8.10;7.30;;;28.90;64.90;30.50;101089.00;;;;5047979;28;20219;-80
2023/08/19 07:46:18;;;;;;;10.27;6.95;;;29.00;64.70;30.60;101093.00;;;;5046814;28;20195;-79
2023/08/19 07:48:45;;;;;;;9.30;6.78;;;29.10;64.70;30.70;101092.00;;;;5047329;28;20203;-79
2023/08/19 07:51:12;;;;;;;8.80;7.55;;;29.20;64.70;30.80;101093.00;;;;5047052;28;20207;-79
2023/08/19 07:53:39;;;;;;;14.25;6.93;;;29.30;64.70;30.90;101095.00;;;;5047298;28;20674;-79
2023/08/19 07:56:08;;;;;;;9.77;7.63;;;29.40;64.50;31.00;101099.00;;;;5047710;28;20213;-80
2023/08/19 07:58:37;;;;;;;8.57;5.95;;;29.40;64.30;31.00;101105.00;;;;5047696;28;20212;-80
2023/08/19 08:01:05;;;;;;;7.00;6.30;;;29.50;64.20;31.10;101109.00;;;;5045711;28;20690;-80
2023/08/19 08:03:32;;;;;;;10.55;6.60;;;29.60;64.00;31.10;101110.00;;;;5047557;28;20195;-80
2023/08/19 08:05:59;;;;;;;7.18;6.35;;;29.60;63.90;31.20;101123.00;;;;5047609;28;20223;-80
2023/08/19 08:08:26;;;;;;;7.95;6.03;;;29.70;63.70;31.20;101119.00;;;;5047304;28;20253;-80
2023/08/19 08:10:53;;;;;;;8.35;6.28;;;29.70;63.30;31.20;101120.00;;;;5047551;28;20242;-79
2023/08/19 08:13:22;;;;;;;7.03;6.32;;;29.70;63.10;31.20;101109.00;;;;5048264;28;20206;-79
2023/08/19 08:15:49;;;;;;;6.80;6.10;;;29.80;63.10;31.20;101112.00;;;;5046913;28;20203;-80
2023/08/19 08:18:16;;;;;;;7.00;6.40;;;29.80;63.00;31.30;101122.00;;;;5046626;28;20215;-79
2023/08/19 08:20:44;;;;;;;7.13;6.43;;;29.80;62.90;31.30;101122.00;;;;5047267;28;20203;-79
2023/08/19 08:23:11;;;;;;;6.25;5.65;;;29.80;62.80;31.30;101120.00;;;;5046705;28;20203;-79
2023/08/19 08:25:38;;;;;;;7.60;5.43;;;29.90;62.90;31.30;101123.00;;;;5046883;28;20673;-79
2023/08/19 08:28:06;;;;;;;6.15;5.50;;;29.90;62.90;31.30;101124.00;;;;5047034;28;20199;-79
2023/08/19 08:30:34;;;;;;;7.82;5.65;;;29.90;63.00;31.30;101149.00;;;;5047413;28;20192;-79
2023/08/19 08:33:02;;;;;;;6.95;6.13;;;29.90;62.80;31.40;101147.00;;;;5047169;28;20200;-80
2023/08/19 08:35:28;;;;;;;6.10;5.57;;;29.90;62.70;31.40;101149.00;;;;5042793;28;20216;-80
2023/08/19 08:37:55;;;;;;;6.85;5.95;;;29.90;62.50;31.40;101147.00;;;;5026616;28;20212;-80
2023/08/19 08:40:22;;;;;;;6.95;5.57;;;29.90;62.50;31.40;101148.00;;;;5027489;28;20211;-79
2023/08/19 08:42:52;;;;;;;7.72;6.45;;;29.90;62.40;31.40;101145.00;;;;5027117;28;20215;-80
2023/08/19 08:45:21;;;;;;;10.95;6.45;;;29.90;62.40;31.30;101144.00;;;;5026527;28;20622;-79
2023/08/19 08:47:51;;;;;;;7.45;6.75;;;29.90;62.20;31.30;101148.00;;;;5027347;28;20204;-80
2023/08/19 08:50:18;;;;;;;8.45;6.10;;;29.90;62.20;31.40;101162.00;;;;5029857;28;20216;-79
2023/08/19 08:52:46;;;;;;;6.80;5.88;;;29.90;62.20;31.30;101167.00;;;;5031537;28;20642;-79
2023/08/19 08:55:14;;;;;;;7.30;6.15;;;29.90;62.20;31.40;101173.00;;;;5047190;28;20682;-79
2023/08/19 08:57:41;;;;;;;6.97;6.28;;;29.90;62.20;31.40;101170.00;;;;5050210;28;20572;-80
2023/08/19 09:00:11;;;;;;;7.20;6.50;;;29.90;62.20;31.40;101169.00;;;;5050513;28;20199;-79
2023/08/19 09:02:40;;;;;;;6.70;6.03;;;29.90;62.20;31.40;101176.00;;;;5050542;28;20206;-79
2023/08/19 09:05:09;;;;;;;9.82;6.38;;;29.90;62.20;31.40;101173.00;;;;5050376;28;20227;-79
2023/08/19 09:07:41;;;;;;;7.38;6.38;;;29.90;62.20;31.30;101172.00;;;;5049706;28;20784;-79
2023/08/19 09:10:14;;;;;;;7.30;5.65;;;29.90;62.20;31.30;101180.00;;;;5049824;28;20242;-79
2023/08/19 09:12:44;;;;;;;7.80;6.82;;;29.90;62.20;31.30;101187.00;;;;5050257;28;20448;-79
2023/08/19 09:15:12;;;;;;;6.78;6.18;;;29.90;62.20;31.40;101190.00;;;;5050169;28;20581;-79
2023/08/19 09:17:40;;;;;;;6.68;6.03;;;29.90;62.30;31.40;101198.00;;;;5050124;28;20204;-78
2023/08/19 09:20:09;;;;;;;7.53;6.82;;;30.00;62.30;31.30;101212.00;;;;5049794;28;20191;-80
2023/08/19 09:22:41;;;;;;;12.40;7.75;;;29.90;62.20;31.30;101210.00;;;;5050283;28;20643;-80
2023/08/19 09:25:13;;;;;;;6.90;6.18;;;30.00;62.20;31.30;101217.00;;;;5050017;28;20608;-80
2023/08/19 09:27:41;;;;;;;9.13;7.75;;;30.00;62.20;31.30;101220.00;;;;5049779;28;20640;-79
2023/08/19 09:30:08;;;;;;;7.95;7.22;;;29.90;62.10;31.30;101201.00;;;;5050045;28;20203;-79
2023/08/19 09:32:38;;;;;;;7.93;7.18;;;29.90;62.20;31.30;101214.00;;;;5049826;28;21118;-78
2023/08/19 09:35:11;;;;;;;11.35;7.00;;;29.90;62.20;31.30;101212.00;;;;5049263;28;20205;-80
2023/08/19 09:37:38;;;;;;;7.28;6.60;;;29.90;62.20;31.30;101224.00;;;;5049941;28;20208;-78
2023/08/19 09:40:10;;;;;;;8.57;7.65;;;30.00;62.40;31.30;101238.00;;;;5049409;28;20204;-78
2023/08/19 09:42:38;;;;;;;7.93;7.15;;;29.90;62.40;31.40;101246.00;;;;5049951;28;20610;-79
2023/08/19 09:45:07;;;;;;;8.68;7.60;;;30.00;62.50;31.40;101243.00;;;;5030977;28;20322;-79
2023/08/19 09:47:48;;;;;;;8.57;7.75;;;30.00;63.30;31.30;101246.00;;;;5030324;28;20211;-78
2023/08/19 09:50:17;;;;;;;9.70;7.45;;;30.00;62.80;31.50;101255.00;;;;5029343;28;20227;-79
2023/08/19 09:52:55;;;;;;;13.73;8.55;;;30.10;63.60;31.40;101265.00;;;;5029265;28;20210;-79
2023/08/19 09:55:26;;;;;;;10.05;8.30;;;30.10;62.80;31.50;101266.00;;;;5046746;28;20264;-80
2023/08/19 09:57:54;;;;;;;13.20;9.60;;;30.20;62.90;31.60;101265.00;;;;5049845;28;20195;-78
2023/08/19 10:00:22;;;;;;;10.05;8.10;;;30.20;62.80;31.60;101267.00;;;;5045360;28;20208;-79
2023/08/19 10:02:49;;;;;;;12.38;9.25;;;30.20;62.70;31.60;101265.00;;;;5029317;28;20215;-79
2023/08/19 10:05:18;;;;;;;12.10;9.55;;;30.20;62.60;31.60;101267.00;;;;5028655;28;20242;-79
2023/08/19 10:07:58;;;;;;;8.65;7.75;;;30.30;62.70;31.60;101272.00;;;;5029436;28;20216;-78
2023/08/19 10:10:30;;;;;;;11.15;8.50;;;30.30;62.70;31.60;101276.00;;;;5029712;28;20231;-78
2023/08/19 10:12:58;;;;;;;9.25;8.02;;;30.30;62.50;31.60;101280.00;;;;5029048;28;20192;-78
2023/08/19 10:15:32;;;;;;;8.93;8.02;;;30.30;62.40;31.60;101287.00;;;;5028734;28;20587;-78
2023/08/19 10:18:07;;;;;;;8.05;7.25;;;30.30;62.30;31.60;101293.00;;;;5029788;28;20219;-79
2023/08/19 10:20:39;;;;;;;7.85;7.05;;;30.30;62.20;31.60;101292.00;;;;5029612;28;20206;-79
2023/08/19 10:23:09;;;;;;;9.80;7.75;;;30.30;62.10;31.60;101301.00;;;;5028384;28;20211;-78
2023/08/19 10:25:41;;;;;;;8.35;7.07;;;30.30;62.00;31.60;101294.00;;;;5029027;28;20242;-78
2023/08/19 10:28:12;;;;;;;7.32;6.35;;;30.30;61.90;31.60;101288.00;;;;5028496;28;20206;-78
2023/08/19 10:30:39;;;;;;;9.25;7.63;;;30.30;61.90;31.60;101290.00;;;;5029067;28;20227;-78
2023/08/19 10:33:36;;;;;;;7.72;6.75;;;30.30;61.90;31.50;101294.00;;;;5035930;28;20546;-79
2023/08/19 10:36:06;;;;;;;7.38;6.22;;;30.30;62.00;31.70;101309.00;;;;5031630;28;20616;-78
2023/08/19 10:38:46;;;;;;;6.32;5.70;;;30.30;62.90;31.70;101306.00;;;;5028384;28;20665;-78
2023/08/19 10:41:27;;;;;;;6.72;5.38;;;30.40;62.10;31.70;101335.00;;;;5027924;28;20195;-80
2023/08/19 10:43:57;;;;;;;7.88;5.32;;;30.40;62.10;31.80;101342.00;;;;5028873;28;20570;-79
2023/08/19 10:46:31;;;;;;;7.60;6.20;;;30.50;62.10;31.80;101350.00;;;;5028518;28;20227;-78
2023/08/19 10:48:59;;;;;;;5.07;4.57;;;30.50;61.50;31.90;101337.00;;;;5029009;28;20203;-79
2023/08/19 10:51:50;;;;;;;5.55;4.15;;;30.60;61.20;31.70;101331.00;;;;5028779;28;20220;-79